This is the latest recevied weather packets stored in our database for station/object N3FAA. If no packets are shown the sender has not sent any weather packets the latest 1 day(s).
| Time | Temp. | Humidity | Pressure | Rain* | Wind** | Luminosity | Snow |
|---|---|---|---|---|---|---|---|
| 1778030514 | 15.56° C | 54% | 1010.3 hPa | 0 mm | 5.36 m/s, 253° | 136 W/m² | - |
| 1778030211 | 16.11° C | 53% | 1010.4 hPa | 0 mm | 6.26 m/s, 272° | 154 W/m² | - |
| 1778029907 | 15.56° C | 53% | 1010.4 hPa | 0 mm | 4.47 m/s, 259° | 171 W/m² | - |
| 1778029606 | 16.11° C | 52% | 1010.1 hPa | 0 mm | 4.02 m/s, 283° | 177 W/m² | - |
| 1778029303 | 16.11° C | 52% | 1010.1 hPa | 0 mm | 2.68 m/s, 259° | 187 W/m² | - |
| 1778028999 | 16.67° C | 50% | 1010.3 hPa | 0 mm | 4.47 m/s, 269° | 200 W/m² | - |
| 1778028696 | 16.67° C | 50% | 1010.1 hPa | 0 mm | 4.47 m/s, 288° | 153 W/m² | - |
| 1778028393 | 16.11° C | 51% | 1010 hPa | 0 mm | 4.02 m/s, 272° | 266 W/m² | - |
| 1778028090 | 16.67° C | 50% | 1010.1 hPa | 0 mm | 6.26 m/s, 269° | 298 W/m² | - |
| 1778027786 | 16.67° C | 49% | 1010 hPa | 0 mm | 4.47 m/s, 264° | 315 W/m² | - |
| 1778027482 | 16.67° C | 50% | 1009.9 hPa | 0 mm | 4.02 m/s, 262° | 359 W/m² | - |
| 1778027179 | 16.67° C | 49% | 1009.8 hPa | 0 mm | 4.02 m/s, 257° | 346 W/m² | - |
| 1778026874 | 16.67° C | 50% | 1009.9 hPa | 0 mm | 4.02 m/s, 271° | 357 W/m² | - |
| 1778026571 | 17.22° C | 48% | 1009.8 hPa | 0 mm | 5.36 m/s, 269° | 377 W/m² | - |
| 1778026268 | 17.22° C | 47% | 1009.8 hPa | 0 mm | 4.02 m/s, 273° | 396 W/m² | - |
| 1778025966 | 17.22° C | 49% | 1009.4 hPa | 0 mm | 4.92 m/s, 285° | 411 W/m² | - |
| 1778025663 | 17.78° C | 44% | 1009.8 hPa | 0 mm | 6.71 m/s, 280° | 425 W/m² | - |
| 1778025361 | 17.78° C | 45% | 1009.3 hPa | 0 mm | 5.36 m/s, 277° | 424 W/m² | - |
| 1778025057 | 17.78° C | 44% | 1009.2 hPa | 0 mm | 4.92 m/s, 280° | 445 W/m² | - |
| 1778024754 | 18.33° C | 43% | 1009.4 hPa | 0 mm | 4.02 m/s, 250° | 520 W/m² | - |
| 1778024451 | 17.78° C | 43% | 1009.3 hPa | 0 mm | 4.47 m/s, 237° | 590 W/m² | - |
| 1778024149 | 17.78° C | 42% | 1009.4 hPa | 0 mm | 4.47 m/s, 278° | 441 W/m² | - |
| 1778023846 | 17.78° C | 45% | 1009.3 hPa | 0 mm | 4.92 m/s, 289° | 261 W/m² | - |
| 1778023544 | 18.89° C | 41% | 1009.1 hPa | 0 mm | 6.26 m/s, 278° | 685 W/m² | - |
| 1778023241 | 18.33° C | 42% | 1009.5 hPa | 0 mm | 3.58 m/s, 265° | 655 W/m² | - |
* Rain latest hour (hover to see other rain measurements)
** Current wind speed in m/s (hover to see current wind gust speed)